This is the latest recevied weather packets stored in our database for station/object IW3HBX-13. If no packets are shown the sender has not sent any weather packets the latest 10 day(s).
| Time | Temp. | Humidity | Pressure | Rain* | Wind** | Luminosity | Snow |
|---|---|---|---|---|---|---|---|
| 1777632127 | 19.44° C | 30% | 1028.4 hPa | 0 mm | - | 815 W/m² | - |
| 1777631770 | 18.89° C | 31% | 1028.4 hPa | 0 mm | - | 816 W/m² | - |
| 1777631407 | 17.78° C | 31% | 1028.5 hPa | 0 mm | - | 814 W/m² | - |
| 1777631047 | 18.33° C | 31% | 1028.5 hPa | 0 mm | - | 806 W/m² | - |
| 1777630690 | 18.33° C | 30% | 1028.6 hPa | 0 mm | - | 797 W/m² | - |
| 1777629967 | 18.33° C | 30% | 1028.6 hPa | 0 mm | - | 778 W/m² | - |
| 1777629249 | 17.78° C | 31% | 1028.7 hPa | 0 mm | - | 759 W/m² | - |
| 1777628890 | 17.78° C | 32% | 1028.7 hPa | 0 mm | - | 740 W/m² | - |
| 1777628527 | 18.89° C | 29% | 1028.6 hPa | 0 mm | - | 733 W/m² | - |
| 1777628170 | 18.89° C | 30% | 1028.8 hPa | 0 mm | - | 724 W/m² | - |
| 1777627809 | 18.89° C | 30% | 1028.8 hPa | 0 mm | - | 719 W/m² | - |
| 1777627447 | 18.33° C | 31% | 1028.9 hPa | 0 mm | - | 711 W/m² | - |
| 1777627087 | 18.89° C | 29% | 1028.9 hPa | 0 mm | - | 698 W/m² | - |
| 1777626727 | 18.89° C | 30% | 1028.9 hPa | 0 mm | - | 688 W/m² | - |
| 1777626367 | 17.78° C | 31% | 1028.9 hPa | 0 mm | - | 678 W/m² | - |
| 1777625647 | 17.78° C | 31% | 1028.9 hPa | 0 mm | - | 659 W/m² | - |
| 1777625290 | 17.78° C | 32% | 1029 hPa | 0 mm | - | 647 W/m² | - |
| 1777624927 | 17.22° C | 31% | 1028.9 hPa | 0 mm | - | 632 W/m² | - |
| 1777624567 | 16.67° C | 32% | 1028.9 hPa | 0 mm | - | 622 W/m² | - |
| 1777624207 | 16.67° C | 31% | 1028.9 hPa | 0 mm | - | 605 W/m² | - |
| 1777623847 | 16.11° C | 33% | 1028.9 hPa | 0 mm | - | 584 W/m² | - |
| 1777623487 | 16.11° C | 33% | 1028.9 hPa | 0 mm | - | 567 W/m² | - |
| 1777623128 | 16.11° C | 32% | 1029 hPa | 0 mm | - | 554 W/m² | - |
| 1777622767 | 16.11° C | 33% | 1028.8 hPa | 0 mm | - | 537 W/m² | - |
| 1777622047 | 15.56° C | 33% | 1029 hPa | 0 mm | - | 498 W/m² | - |
* Rain latest hour (hover to see other rain measurements)
** Current wind speed in m/s (hover to see current wind gust speed)